Time;durP1;ratioP1;P1;durP2;ratioP2;P2;SDS_P1;SDS_P2;PMS_P1;PMS_P2;Temp;Humidity;BMP_temperature;BMP_pressure;BME280_temperature;BME280_humidity;BME280_pressure;Samples;Min_cycle;Max_cycle;Signal;HPM_P1;HPM_P2
2022/11/13 00:02:25;;;;;;;9.52;5.28;;;6.80;99.90;;;;;;5043190;28;20045;-88
2022/11/13 00:05:09;;;;;;;12.30;5.03;;;6.90;99.90;;;;;;5036602;28;20067;-88
2022/11/13 00:07:53;;;;;;;10.50;5.05;;;7.00;99.90;;;;;;5045177;28;20059;-88
2022/11/13 00:10:38;;;;;;;7.05;4.07;;;7.00;99.90;;;;;;5045170;28;20039;-88
2022/11/13 00:13:22;;;;;;;7.00;3.65;;;7.10;99.90;;;;;;5046373;28;20067;-88
2022/11/13 00:16:10;;;;;;;7.95;3.95;;;7.20;99.90;;;;;;5045954;28;20044;-90
2022/11/13 00:18:54;;;;;;;10.63;4.20;;;7.20;99.90;;;;;;5043085;28;20056;-88
2022/11/13 00:22:22;;;;;;;11.65;5.82;;;7.30;99.90;;;;;;5050931;28;20095;-87
2022/11/13 00:25:07;;;;;;;5.28;2.97;;;7.30;99.90;;;;;;5035510;28;20040;-88
2022/11/13 00:27:51;;;;;;;3.75;2.53;;;7.40;99.90;;;;;;5043878;28;20048;-88
2022/11/13 00:30:36;;;;;;;11.40;4.45;;;7.40;99.90;;;;;;5045029;28;20128;-88
2022/11/13 00:33:20;;;;;;;11.98;5.22;;;7.50;99.90;;;;;;5043334;28;20095;-87
2022/11/13 00:36:09;;;;;;;8.63;4.35;;;7.50;99.90;;;;;;5038389;28;20099;-88
2022/11/13 00:39:06;;;;;;;8.77;4.18;;;7.40;99.90;;;;;;5051391;28;20412;-87
2022/11/13 00:41:50;;;;;;;8.20;4.07;;;7.40;99.90;;;;;;5043478;28;20040;-88
2022/11/13 00:44:34;;;;;;;8.68;3.65;;;7.50;99.90;;;;;;5043376;28;20087;-87
2022/11/13 00:47:18;;;;;;;5.95;3.40;;;7.60;99.90;;;;;;5044740;28;20075;-87
2022/11/13 00:50:03;;;;;;;10.80;4.00;;;7.50;99.90;;;;;;5034001;28;20396;-88
2022/11/13 00:52:47;;;;;;;7.97;4.20;;;7.40;99.90;;;;;;5033655;28;20175;-87
2022/11/13 00:55:31;;;;;;;7.90;3.78;;;7.30;99.90;;;;;;5042779;28;20091;-88
2022/11/13 00:58:16;;;;;;;11.20;4.35;;;7.20;99.90;;;;;;5035314;28;20052;-88
2022/11/13 01:01:06;;;;;;;7.45;4.22;;;7.10;99.90;;;;;;5037644;28;20068;-88
2022/11/13 01:03:50;;;;;;;5.95;4.00;;;7.10;99.90;;;;;;5045711;28;20559;-89
2022/11/13 01:06:34;;;;;;;7.72;4.68;;;7.00;99.90;;;;;;5043907;28;20650;-88
2022/11/13 01:09:18;;;;;;;7.43;4.07;;;7.00;99.90;;;;;;5046304;28;20044;-88
2022/11/13 01:12:02;;;;;;;10.52;4.88;;;7.00;99.90;;;;;;5046461;28;20036;-88
2022/11/13 01:14:46;;;;;;;7.97;4.53;;;6.90;99.90;;;;;;5044074;28;20109;-88
2022/11/13 01:17:30;;;;;;;7.78;4.55;;;6.90;99.90;;;;;;5045043;28;20044;-88
2022/11/13 01:20:15;;;;;;;11.02;5.75;;;6.80;99.90;;;;;;5041460;28;20413;-87
2022/11/13 01:22:59;;;;;;;10.20;6.03;;;6.70;99.90;;;;;;5035384;28;20535;-88
2022/11/13 01:25:43;;;;;;;7.40;5.15;;;6.60;99.90;;;;;;5043076;28;20732;-87
2022/11/13 01:28:28;;;;;;;10.63;6.07;;;6.50;99.90;;;;;;5044338;28;20036;-87
2022/11/13 01:31:21;;;;;;;10.05;5.32;;;6.50;99.90;;;;;;5036239;28;20035;-88
2022/11/13 01:34:05;;;;;;;10.68;5.88;;;6.50;99.90;;;;;;5038247;28;20055;-87
2022/11/13 01:36:49;;;;;;;8.48;4.97;;;6.50;99.90;;;;;;5037670;28;20040;-88
2022/11/13 01:39:52;;;;;;;9.90;5.22;;;6.40;99.90;;;;;;5049178;28;20048;-87
2022/11/13 01:42:36;;;;;;;9.25;5.28;;;6.40;99.90;;;;;;5038934;28;20511;-88
2022/11/13 01:45:57;;;;;;;13.65;5.00;;;6.40;99.90;;;;;;5046163;28;20125;-88
2022/11/13 01:48:51;;;;;;;9.27;5.22;;;6.30;99.90;;;;;;5041799;28;20044;-88
2022/11/13 01:51:41;;;;;;;13.27;5.70;;;6.30;99.90;;;;;;5046337;28;20496;-87
2022/11/13 01:54:47;;;;;;;8.85;5.20;;;6.10;99.90;;;;;;5036658;28;20121;-88
2022/11/13 01:57:31;;;;;;;9.60;5.40;;;6.30;99.90;;;;;;5040688;28;20503;-88
2022/11/13 02:00:16;;;;;;;11.30;5.57;;;6.40;99.90;;;;;;5043964;28;20400;-88
2022/11/13 02:03:00;;;;;;;8.85;4.82;;;6.40;99.90;;;;;;5034672;28;20103;-88
2022/11/13 02:05:45;;;;;;;6.90;4.20;;;6.30;99.90;;;;;;5042802;28;20048;-88
2022/11/13 02:08:29;;;;;;;7.90;5.13;;;6.40;99.90;;;;;;5048305;28;20044;-87
2022/11/13 02:11:13;;;;;;;7.88;4.10;;;6.40;99.90;;;;;;5038192;28;20120;-88
2022/11/13 02:13:59;;;;;;;8.43;3.50;;;6.40;99.90;;;;;;5033079;28;20714;-88
2022/11/13 02:17:06;;;;;;;10.85;4.00;;;6.30;99.90;;;;;;5040451;28;20052;-88
2022/11/13 02:19:57;;;;;;;8.25;4.22;;;6.20;99.90;;;;;;5041383;28;20950;-88
2022/11/13 02:22:44;;;;;;;5.50;3.65;;;6.10;99.90;;;;;;5042449;28;20125;-87
2022/11/13 02:25:30;;;;;;;7.05;3.63;;;6.10;99.90;;;;;;5048030;28;20102;-88
2022/11/13 02:28:14;;;;;;;8.57;4.68;;;6.10;99.90;;;;;;5038124;28;20044;-87
2022/11/13 02:31:06;;;;;;;6.85;3.40;;;6.20;99.90;;;;;;5032835;28;20207;-88
2022/11/13 02:33:51;;;;;;;5.57;3.17;;;6.30;99.90;;;;;;5042315;28;20248;-87
2022/11/13 02:36:35;;;;;;;4.75;2.90;;;6.40;99.90;;;;;;5042190;28;20196;-88
2022/11/13 02:39:19;;;;;;;4.75;3.10;;;6.40;99.90;;;;;;5044586;28;20120;-88
2022/11/13 02:42:03;;;;;;;4.57;2.92;;;6.40;99.90;;;;;;5044757;28;20036;-88
2022/11/13 02:44:47;;;;;;;5.43;2.75;;;6.50;99.90;;;;;;5043023;28;20052;-87
2022/11/13 02:47:32;;;;;;;3.78;2.60;;;6.40;99.90;;;;;;5052275;28;20052;-88
2022/11/13 02:50:16;;;;;;;3.63;2.45;;;6.50;99.90;;;;;;5040637;28;20091;-88
2022/11/13 02:53:01;;;;;;;3.58;2.28;;;6.60;99.90;;;;;;5027680;28;20083;-88
2022/11/13 02:55:45;;;;;;;4.25;2.70;;;6.70;99.90;;;;;;5035725;28;20048;-88
2022/11/13 02:59:04;;;;;;;4.35;2.88;;;6.80;99.90;;;;;;5049029;28;20047;-88
2022/11/13 03:01:48;;;;;;;3.75;2.55;;;6.80;99.90;;;;;;5046044;28;20127;-88
2022/11/13 03:04:32;;;;;;;4.63;2.60;;;6.80;99.90;;;;;;5044821;28;20090;-88
2022/11/13 03:07:16;;;;;;;5.20;2.67;;;6.70;99.90;;;;;;5048476;28;20094;-88
2022/11/13 03:10:00;;;;;;;5.03;2.45;;;6.60;99.90;;;;;;5047319;28;20036;-87
2022/11/13 03:12:45;;;;;;;3.33;2.15;;;6.60;99.90;;;;;;5046565;28;20099;-88
2022/11/13 03:15:29;;;;;;;3.42;2.00;;;6.70;99.90;;;;;;5047480;28;20094;-88
2022/11/13 03:18:13;;;;;;;3.80;2.17;;;6.70;99.90;;;;;;5042387;28;20072;-87
2022/11/13 03:20:57;;;;;;;2.92;1.80;;;6.60;99.90;;;;;;5036575;28;20087;-88
2022/11/13 03:23:44;;;;;;;3.10;2.00;;;6.40;99.90;;;;;;5043373;28;20048;-87
2022/11/13 03:26:28;;;;;;;2.90;2.03;;;6.40;99.90;;;;;;5046003;28;20037;-88
2022/11/13 03:29:12;;;;;;;2.00;1.60;;;6.40;99.90;;;;;;5036878;28;20506;-87
2022/11/13 03:31:56;;;;;;;9.05;2.13;;;6.40;99.90;;;;;;5046203;28;20051;-88
2022/11/13 03:34:41;;;;;;;3.58;1.83;;;6.40;99.90;;;;;;5045622;28;20385;-87
2022/11/13 03:37:25;;;;;;;1.90;1.70;;;6.50;99.90;;;;;;5049103;28;20163;-87
2022/11/13 03:40:09;;;;;;;2.85;1.92;;;6.50;99.90;;;;;;5041283;28;20043;-88
2022/11/13 03:42:54;;;;;;;4.93;2.25;;;6.40;99.90;;;;;;5050769;28;20067;-88
2022/11/13 03:45:38;;;;;;;2.70;1.77;;;6.40;99.90;;;;;;5042982;28;20071;-87
2022/11/13 03:48:22;;;;;;;3.22;2.03;;;6.30;99.90;;;;;;5047095;28;20041;-87
2022/11/13 03:51:28;;;;;;;2.90;2.00;;;6.30;99.90;;;;;;5036254;28;20076;-87
2022/11/13 03:55:02;;;;;;;3.42;2.22;;;6.20;99.90;;;;;;5040049;28;20036;-87
2022/11/13 03:57:46;;;;;;;3.97;2.15;;;6.00;99.90;;;;;;5043651;28;20134;-88
2022/11/13 04:00:31;;;;;;;3.28;2.15;;;6.00;99.90;;;;;;5047003;28;20133;-88
2022/11/13 04:03:16;;;;;;;6.18;2.05;;;6.10;99.90;;;;;;5042215;28;20051;-87
2022/11/13 04:06:00;;;;;;;4.90;2.53;;;6.00;99.90;;;;;;5039651;28;20067;-87
2022/11/13 04:08:44;;;;;;;4.45;2.50;;;6.00;99.90;;;;;;5049193;28;20128;-87
2022/11/13 04:11:28;;;;;;;3.88;2.65;;;6.10;99.90;;;;;;5042616;28;20117;-87
2022/11/13 04:14:12;;;;;;;3.75;2.72;;;6.00;99.90;;;;;;5037811;28;20103;-87
2022/11/13 04:16:57;;;;;;;6.18;2.75;;;5.90;99.90;;;;;;5032961;28;20142;-87
2022/11/13 04:19:41;;;;;;;7.07;3.70;;;5.90;99.90;;;;;;5043295;28;20400;-88
2022/11/13 04:22:40;;;;;;;6.18;2.90;;;5.80;99.90;;;;;;5046095;28;20049;-88
2022/11/13 04:25:25;;;;;;;4.10;2.80;;;5.80;99.90;;;;;;5048766;28;20609;-88
2022/11/13 04:28:10;;;;;;;4.60;2.88;;;5.80;99.90;;;;;;5040743;28;20040;-87
2022/11/13 04:30:54;;;;;;;6.28;3.33;;;5.80;99.90;;;;;;5050112;28;20076;-87
2022/11/13 04:33:38;;;;;;;6.50;2.80;;;5.80;99.90;;;;;;5040499;28;20095;-88
2022/11/13 04:36:22;;;;;;;5.53;3.25;;;5.90;99.90;;;;;;5044314;28;20043;-87
2022/11/13 04:39:07;;;;;;;6.43;3.42;;;5.80;99.90;;;;;;5034848;28;20036;-87
2022/11/13 04:45:38;;;;;;;7.00;3.30;;;5.90;99.90;;;;;;5042121;28;20055;-88
2022/11/13 04:48:25;;;;;;;6.38;3.53;;;5.80;99.90;;;;;;5046856;28;20048;-88
2022/11/13 04:51:09;;;;;;;7.15;3.35;;;5.70;99.90;;;;;;5035807;28;20917;-88
2022/11/13 04:54:12;;;;;;;4.45;3.42;;;5.70;99.90;;;;;;5044551;28;20124;-87
2022/11/13 04:56:56;;;;;;;7.55;3.97;;;5.50;99.90;;;;;;5038088;28;20143;-87
2022/11/13 04:59:41;;;;;;;6.10;3.97;;;5.40;99.90;;;;;;5041056;28;20121;-87
2022/11/13 05:02:25;;;;;;;6.80;4.32;;;5.30;99.90;;;;;;5043373;28;20043;-87
2022/11/13 05:05:09;;;;;;;6.43;4.40;;;5.20;99.90;;;;;;5037123;28;20494;-87
2022/11/13 05:07:53;;;;;;;9.38;4.53;;;5.00;99.90;;;;;;5043136;28;20044;-87
2022/11/13 05:10:37;;;;;;;8.55;5.03;;;4.90;99.90;;;;;;5043604;28;20495;-87
2022/11/13 05:13:21;;;;;;;9.27;5.22;;;4.90;99.90;;;;;;5042763;28;20040;-88
2022/11/13 05:16:08;;;;;;;7.18;4.38;;;4.90;99.90;;;;;;5036973;28;20095;-88
2022/11/13 05:18:52;;;;;;;7.05;4.13;;;4.90;99.90;;;;;;5043822;28;20044;-88
2022/11/13 05:21:38;;;;;;;8.18;4.78;;;4.80;99.90;;;;;;5043249;28;20056;-87
2022/11/13 05:24:41;;;;;;;7.75;4.70;;;4.90;99.90;;;;;;5045704;28;20137;-87
2022/11/13 05:27:25;;;;;;;13.50;5.53;;;4.80;99.90;;;;;;5044092;28;20068;-87
2022/11/13 05:30:10;;;;;;;8.80;5.63;;;4.80;99.90;;;;;;5045277;28;20032;-87
2022/11/13 05:32:54;;;;;;;8.27;5.13;;;4.70;99.90;;;;;;5042114;28;20045;-87
2022/11/13 05:35:38;;;;;;;9.43;5.95;;;4.60;99.90;;;;;;5042530;28;20048;-87
2022/11/13 05:38:23;;;;;;;9.43;5.78;;;4.50;99.90;;;;;;5043915;28;20040;-87
2022/11/13 05:41:09;;;;;;;8.93;5.18;;;4.60;99.90;;;;;;5027360;28;20397;-87
2022/11/13 05:43:54;;;;;;;11.27;6.00;;;4.70;99.90;;;;;;5044132;28;20043;-88
2022/11/13 05:46:38;;;;;;;8.25;4.70;;;4.80;99.90;;;;;;5042761;28;20128;-87
2022/11/13 05:49:22;;;;;;;8.73;5.32;;;4.80;99.90;;;;;;5043957;28;20048;-88
2022/11/13 05:52:06;;;;;;;11.27;6.63;;;4.70;99.90;;;;;;5038777;28;20087;-88
2022/11/13 05:54:50;;;;;;;7.18;4.80;;;4.90;99.90;;;;;;5046824;28;20044;-87
2022/11/13 05:57:34;;;;;;;6.43;4.53;;;5.10;99.90;;;;;;5037211;28;20056;-87
2022/11/13 06:00:38;;;;;;;8.35;5.03;;;5.10;99.90;;;;;;5043513;28;20044;-88
2022/11/13 06:03:22;;;;;;;7.38;4.45;;;5.00;99.90;;;;;;5040027;28;20761;-87
2022/11/13 06:06:08;;;;;;;12.80;5.97;;;5.10;99.90;;;;;;5038514;28;20048;-87
2022/11/13 06:08:54;;;;;;;9.75;5.47;;;5.10;99.90;;;;;;5043749;28;20555;-88
2022/11/13 06:11:38;;;;;;;9.27;5.00;;;5.10;99.90;;;;;;5029804;28;20045;-87
2022/11/13 06:14:23;;;;;;;11.05;5.00;;;5.10;99.90;;;;;;5043930;28;20045;-87
2022/11/13 06:17:07;;;;;;;10.00;6.35;;;5.00;99.90;;;;;;5034006;28;20043;-87
2022/11/13 06:19:51;;;;;;;9.60;6.07;;;4.90;99.90;;;;;;5042491;28;20044;-88
2022/11/13 06:22:35;;;;;;;11.93;6.38;;;4.60;99.90;;;;;;5048058;28;20064;-87
2022/11/13 06:25:19;;;;;;;8.73;5.63;;;4.40;99.90;;;;;;5044784;28;20040;-88
2022/11/13 06:28:03;;;;;;;12.70;6.90;;;4.40;99.90;;;;;;5040386;28;20088;-87
2022/11/13 06:30:47;;;;;;;12.80;6.85;;;4.30;99.90;;;;;;5052283;28;20051;-87
2022/11/13 06:33:33;;;;;;;12.40;6.85;;;4.20;99.90;;;;;;5030011;28;20036;-88
2022/11/13 06:36:29;;;;;;;11.25;6.72;;;4.20;99.90;;;;;;5029939;28;20443;-87
2022/11/13 06:39:13;;;;;;;13.20;6.32;;;4.30;99.90;;;;;;5040003;28;20064;-87
2022/11/13 06:41:57;;;;;;;11.15;6.68;;;4.30;99.90;;;;;;5044562;28;20055;-86
2022/11/13 06:44:41;;;;;;;10.23;6.53;;;4.30;99.90;;;;;;5046420;28;20665;-86
2022/11/13 06:47:26;;;;;;;11.70;6.68;;;4.30;99.90;;;;;;5022874;28;20044;-86
2022/11/13 06:50:11;;;;;;;13.38;7.07;;;4.30;99.90;;;;;;5025511;28;20032;-86
2022/11/13 06:52:55;;;;;;;13.82;7.15;;;4.30;99.90;;;;;;5034528;28;20116;-86
2022/11/13 06:55:49;;;;;;;12.57;7.38;;;4.30;99.90;;;;;;5032358;28;20048;-86
2022/11/13 06:58:34;;;;;;;12.82;7.18;;;4.30;99.90;;;;;;5042828;28;20052;-87
2022/11/13 07:01:21;;;;;;;9.57;6.60;;;4.30;99.90;;;;;;5023654;28;20048;-86
2022/11/13 07:04:10;;;;;;;13.00;7.40;;;4.30;99.90;;;;;;5030360;28;20044;-85
2022/11/13 07:06:54;;;;;;;9.93;6.30;;;4.20;99.90;;;;;;5031529;28;20047;-86
2022/11/13 07:09:38;;;;;;;10.05;6.90;;;4.20;99.90;;;;;;5029450;28;20507;-87
2022/11/13 07:12:22;;;;;;;15.02;7.80;;;4.20;99.90;;;;;;5033022;28;20040;-86
2022/11/13 07:15:07;;;;;;;13.00;7.35;;;4.20;99.90;;;;;;5033626;28;20040;-87
2022/11/13 07:17:51;;;;;;;10.98;6.57;;;4.10;99.90;;;;;;5034830;28;20040;-87
2022/11/13 07:20:35;;;;;;;14.15;6.85;;;4.20;99.90;;;;;;5034921;28;20095;-87
2022/11/13 07:23:19;;;;;;;12.40;6.70;;;4.20;99.90;;;;;;5033746;28;20041;-86
2022/11/13 07:26:04;;;;;;;11.68;6.57;;;4.20;99.90;;;;;;5034229;28;20091;-86
2022/11/13 07:28:48;;;;;;;12.25;6.90;;;4.30;99.90;;;;;;5031909;28;20049;-87
2022/11/13 07:31:33;;;;;;;10.95;6.53;;;4.40;99.90;;;;;;5029800;28;20044;-86
2022/11/13 07:34:17;;;;;;;12.77;7.22;;;4.50;99.90;;;;;;5029919;28;20098;-87
2022/11/13 07:37:02;;;;;;;9.95;5.57;;;4.70;99.90;;;;;;5033523;28;20048;-87
2022/11/13 07:43:30;;;;;;;9.95;5.95;;;5.10;99.90;;;;;;5031068;28;20033;-87
2022/11/13 07:46:15;;;;;;;11.40;6.13;;;5.30;99.90;;;;;;5029257;28;20080;-87
2022/11/13 07:48:59;;;;;;;10.40;6.63;;;5.50;99.90;;;;;;5033396;28;20108;-87
2022/11/13 07:51:43;;;;;;;9.88;6.20;;;5.60;99.90;;;;;;5034498;28;20495;-87
2022/11/13 07:55:01;;;;;;;14.75;6.70;;;5.70;99.90;;;;;;5033075;28;20049;-87
2022/11/13 07:58:17;;;;;;;10.23;5.93;;;5.80;99.90;;;;;;5029817;28;20053;-86
2022/11/13 08:01:45;;;;;;;9.23;5.57;;;5.90;99.90;;;;;;5029944;28;20080;-86
2022/11/13 08:04:29;;;;;;;10.45;6.45;;;5.90;99.90;;;;;;5031436;28;20092;-88
2022/11/13 08:07:14;;;;;;;11.20;6.18;;;6.10;99.90;;;;;;5031413;28;20567;-87
2022/11/13 08:09:58;;;;;;;14.07;6.75;;;6.20;99.90;;;;;;5031211;28;20511;-87
2022/11/13 08:12:43;;;;;;;11.18;6.30;;;6.40;99.90;;;;;;5029661;28;20495;-87
2022/11/13 08:15:29;;;;;;;8.45;5.32;;;6.40;99.90;;;;;;5017814;28;20401;-87
2022/11/13 08:18:13;;;;;;;8.05;4.85;;;6.70;99.90;;;;;;5030693;28;20044;-87
2022/11/13 08:21:01;;;;;;;8.98;4.55;;;6.80;99.90;;;;;;5031425;28;20147;-87
2022/11/13 08:23:46;;;;;;;7.70;4.00;;;7.00;99.90;;;;;;5032261;28;20036;-86
2022/11/13 08:26:30;;;;;;;8.50;4.35;;;7.20;99.90;;;;;;5031865;28;20107;-86
2022/11/13 08:29:14;;;;;;;7.57;4.15;;;7.40;99.90;;;;;;5031405;28;20071;-87
2022/11/13 08:31:58;;;;;;;6.60;3.85;;;7.50;99.90;;;;;;5032388;28;20122;-87
2022/11/13 08:34:42;;;;;;;9.13;3.92;;;7.60;99.90;;;;;;5031028;28;20036;-87
2022/11/13 08:37:27;;;;;;;8.45;3.63;;;7.80;99.90;;;;;;5029810;28;20044;-87
2022/11/13 08:40:12;;;;;;;4.68;3.40;;;7.90;99.90;;;;;;5030786;28;20129;-87
2022/11/13 08:43:01;;;;;;;6.10;3.50;;;8.10;99.90;;;;;;5031413;28;20129;-88
2022/11/13 08:45:46;;;;;;;5.50;3.55;;;8.30;99.90;;;;;;5031784;28;20132;-88
2022/11/13 08:48:30;;;;;;;6.15;3.50;;;8.40;99.90;;;;;;5030749;28;20095;-87
2022/11/13 08:51:14;;;;;;;6.93;4.20;;;8.50;99.90;;;;;;5033034;28;20048;-87
2022/11/13 08:53:58;;;;;;;7.05;4.18;;;8.60;99.90;;;;;;5030829;28;20167;-86
2022/11/13 08:56:43;;;;;;;6.32;3.80;;;8.70;99.90;;;;;;5032453;28;20141;-87
2022/11/13 08:59:27;;;;;;;6.97;4.18;;;8.80;99.90;;;;;;5030236;28;20064;-88
2022/11/13 09:02:14;;;;;;;7.07;4.32;;;8.90;99.90;;;;;;5032508;28;20036;-87
2022/11/13 09:04:58;;;;;;;8.00;4.07;;;9.00;99.90;;;;;;5033298;28;20072;-87
2022/11/13 09:07:42;;;;;;;7.25;4.53;;;9.00;99.90;;;;;;5032757;28;20436;-86
2022/11/13 09:10:27;;;;;;;6.63;4.22;;;9.00;99.90;;;;;;5031677;28;20616;-87
2022/11/13 09:13:11;;;;;;;6.93;4.57;;;8.90;99.90;;;;;;5025582;28;20037;-87
2022/11/13 09:15:58;;;;;;;6.20;4.15;;;8.80;99.90;;;;;;5026216;28;20418;-87
2022/11/13 09:18:42;;;;;;;7.97;3.95;;;8.80;99.90;;;;;;5031268;28;20048;-87
2022/11/13 09:21:26;;;;;;;6.82;3.97;;;8.80;99.90;;;;;;5021822;28;20096;-87
2022/11/13 09:24:10;;;;;;;7.85;5.38;;;8.90;99.90;;;;;;5026058;28;20563;-87
2022/11/13 09:26:55;;;;;;;8.32;5.07;;;8.90;99.90;;;;;;5031002;28;20088;-87
2022/11/13 09:29:39;;;;;;;6.20;4.18;;;9.00;99.90;;;;;;5031070;28;20083;-87
2022/11/13 09:32:23;;;;;;;6.65;4.00;;;9.10;99.90;;;;;;5038783;28;20044;-87
2022/11/13 09:35:07;;;;;;;8.23;3.78;;;9.20;99.90;;;;;;5034417;28;20389;-87
2022/11/13 09:37:51;;;;;;;8.10;3.75;;;9.30;99.90;;;;;;5032192;28;20071;-87
2022/11/13 09:41:02;;;;;;;6.55;3.63;;;9.40;99.90;;;;;;5030875;28;20048;-87
2022/11/13 09:43:47;;;;;;;5.87;3.60;;;9.50;99.90;;;;;;5028758;28;20052;-87
2022/11/13 09:47:02;;;;;;;6.13;3.88;;;9.50;99.90;;;;;;5030320;28;20183;-87
2022/11/13 09:49:53;;;;;;;6.30;3.65;;;9.60;99.90;;;;;;5028146;28;20048;-87
2022/11/13 09:52:41;;;;;;;7.55;4.10;;;9.70;99.90;;;;;;5025384;28;20121;-88
2022/11/13 09:55:31;;;;;;;8.70;4.55;;;9.70;99.90;;;;;;5028836;28;20049;-87
2022/11/13 09:58:27;;;;;;;7.80;4.40;;;9.70;99.90;;;;;;5030173;28;20052;-87
2022/11/13 10:01:22;;;;;;;6.43;4.00;;;9.70;99.90;;;;;;5028987;28;20086;-88
2022/11/13 10:04:12;;;;;;;7.85;4.38;;;9.80;99.90;;;;;;5024201;28;20090;-87
2022/11/13 10:07:19;;;;;;;6.70;4.05;;;10.10;99.90;;;;;;5032814;28;20048;-87
2022/11/13 10:10:22;;;;;;;6.47;4.25;;;10.40;99.90;;;;;;5025335;28;20044;-87
2022/11/13 10:13:13;;;;;;;7.05;4.65;;;11.10;99.90;;;;;;5028060;28;20064;-87
2022/11/13 10:16:10;;;;;;;7.10;4.33;;;11.60;99.90;;;;;;5032557;28;20400;-87
2022/11/13 10:19:05;;;;;;;6.07;3.60;;;12.30;99.90;;;;;;5017317;28;20457;-87
2022/11/13 10:21:57;;;;;;;4.10;3.08;;;12.70;99.90;;;;;;4966008;28;20090;-88
2022/11/13 10:24:51;;;;;;;4.97;2.42;;;13.10;99.90;;;;;;4986726;28;20167;-87
2022/11/13 10:27:36;;;;;;;5.35;3.60;;;13.20;99.90;;;;;;4985998;28;20794;-87
2022/11/13 10:30:20;;;;;;;7.57;5.05;;;13.10;99.90;;;;;;4977467;28;20037;-87
2022/11/13 10:33:07;;;;;;;9.68;4.13;;;12.60;99.90;;;;;;4982677;28;20107;-86
2022/11/13 10:36:13;;;;;;;5.78;4.03;;;12.30;99.90;;;;;;4988769;28;20109;-87
2022/11/13 10:42:45;;;;;;;6.18;3.90;;;11.70;99.90;;;;;;4979954;28;20150;-87
2022/11/13 10:45:29;;;;;;;9.40;4.18;;;11.50;99.90;;;;;;4990501;28;20552;-86
2022/11/13 10:48:22;;;;;;;8.85;4.38;;;11.30;99.90;;;;;;4971021;28;20579;-86
2022/11/13 10:51:24;;;;;;;9.73;4.60;;;11.10;99.90;;;;;;4978296;28;20053;-86
2022/11/13 10:54:20;;;;;;;;;;;11.10;99.90;;;;;;4973927;28;20091;-86
2022/11/13 10:57:23;;;;;;;8.88;4.80;;;10.90;99.90;;;;;;4975164;28;19965;-86
2022/11/13 11:00:37;;;;;;;6.10;3.97;;;10.90;99.90;;;;;;4972580;28;20403;-86
2022/11/13 11:04:14;;;;;;;5.60;3.95;;;10.80;99.90;;;;;;4972052;28;20502;-86
2022/11/13 11:07:19;;;;;;;8.48;4.63;;;10.60;99.90;;;;;;4979090;28;20556;-86
2022/11/13 11:10:26;;;;;;;17.98;5.10;;;10.50;99.90;;;;;;4969924;28;20033;-86
2022/11/13 11:13:19;;;;;;;7.32;4.65;;;10.50;99.90;;;;;;4978822;28;20048;-86
2022/11/13 11:16:06;;;;;;;5.50;3.75;;;10.50;99.90;;;;;;4978891;28;20464;-86
2022/11/13 11:18:57;;;;;;;8.70;5.63;;;10.60;99.90;;;;;;4981193;28;20061;-86
2022/11/13 11:21:44;;;;;;;9.00;4.85;;;10.50;99.90;;;;;;4977926;28;20121;-85
2022/11/13 11:24:38;;;;;;;11.65;6.35;;;10.50;99.90;;;;;;4980698;28;20041;-86
2022/11/13 11:27:35;;;;;;;12.13;5.78;;;10.60;99.90;;;;;;4973477;28;20125;-86
2022/11/13 11:30:22;;;;;;;10.95;4.68;;;11.00;99.90;;;;;;4975297;28;20130;-86
2022/11/13 11:33:27;;;;;;;5.30;3.70;;;11.80;99.90;;;;;;4976434;28;20134;-85
2022/11/13 11:36:28;;;;;;;6.25;4.00;;;12.20;99.90;;;;;;4963460;28;20076;-87
2022/11/13 11:39:19;;;;;;;;;;;12.20;99.90;;;;;;4971614;28;20125;-87
2022/11/13 11:42:43;;;;;;;6.72;3.85;;;12.50;99.90;;;;;;4979444;28;19916;-86
2022/11/13 11:45:43;;;;;;;5.78;3.92;;;12.80;99.90;;;;;;4988309;28;20398;-87
2022/11/13 11:48:31;;;;;;;7.57;3.75;;;12.40;99.90;;;;;;4996998;28;20143;-87
2022/11/13 11:51:42;;;;;;;6.50;4.03;;;12.10;99.90;;;;;;4977485;28;20578;-86
2022/11/13 11:54:33;;;;;;;4.60;3.40;;;11.60;99.90;;;;;;4994195;28;20054;-86
2022/11/13 11:57:35;;;;;;;6.70;3.92;;;11.40;99.90;;;;;;4976309;28;20057;-87
2022/11/13 12:00:20;;;;;;;6.03;3.83;;;11.40;99.90;;;;;;4997219;28;20053;-86
2022/11/13 12:03:07;;;;;;;5.80;4.07;;;11.40;99.90;;;;;;4979191;28;20089;-87
2022/11/13 12:06:18;;;;;;;9.00;3.75;;;11.20;99.90;;;;;;4984272;28;20049;-86
2022/11/13 12:13:04;;;;;;;7.20;3.80;;;11.00;99.90;;;;;;4986999;28;20038;-86
2022/11/13 12:16:11;;;;;;;6.07;3.85;;;10.90;99.90;;;;;;4997055;28;20045;-86
2022/11/13 12:19:03;;;;;;;6.88;4.13;;;11.00;99.90;;;;;;4983999;28;20053;-86
2022/11/13 12:22:05;;;;;;;8.75;4.03;;;11.00;99.90;;;;;;4983614;28;20053;-86
2022/11/13 12:25:10;;;;;;;5.05;3.45;;;11.00;99.90;;;;;;4983687;28;20065;-86
2022/11/13 12:28:13;;;;;;;6.85;3.67;;;11.00;99.90;;;;;;4973422;28;20038;-86
2022/11/13 12:31:26;;;;;;;4.20;3.13;;;11.00;99.90;;;;;;5003051;28;20651;-87
2022/11/13 12:34:34;;;;;;;5.20;2.90;;;11.00;99.90;;;;;;4989520;28;20045;-86
2022/11/13 12:37:46;;;;;;;5.82;3.63;;;11.10;99.90;;;;;;4981668;28;20041;-86
2022/11/13 12:40:52;;;;;;;5.82;2.78;;;11.10;99.90;;;;;;4974599;28;20077;-86
2022/11/13 12:43:49;;;;;;;6.00;3.30;;;11.20;99.90;;;;;;4982299;28;20115;-86
2022/11/13 12:46:37;;;;;;;6.57;3.80;;;11.30;99.90;;;;;;4976634;28;20041;-86
2022/11/13 12:49:21;;;;;;;4.10;2.80;;;11.30;99.90;;;;;;4973973;28;20042;-87
2022/11/13 12:52:15;;;;;;;5.80;3.20;;;11.40;99.90;;;;;;4986296;28;20118;-86
2022/11/13 12:55:23;;;;;;;5.80;2.72;;;11.50;99.90;;;;;;4974825;28;20553;-86
2022/11/13 12:58:20;;;;;;;5.32;3.28;;;11.40;99.90;;;;;;4960681;28;20869;-87
2022/11/13 13:01:11;;;;;;;4.75;2.90;;;11.40;99.90;;;;;;4972461;28;20115;-86
2022/11/13 13:04:27;;;;;;;4.30;2.80;;;11.40;99.90;;;;;;4988552;28;20038;-86
2022/11/13 13:07:48;;;;;;;3.00;2.30;;;11.40;99.90;;;;;;4961735;28;20085;-87
2022/11/13 13:11:16;;;;;;;5.85;3.50;;;11.40;99.90;;;;;;4976180;28;20057;-87
2022/11/13 13:14:17;;;;;;;5.03;3.17;;;11.40;99.90;;;;;;4972834;28;20081;-86
2022/11/13 13:17:16;;;;;;;5.15;3.30;;;11.30;99.90;;;;;;4983373;28;20049;-87
2022/11/13 13:20:09;;;;;;;4.05;3.03;;;11.30;99.90;;;;;;4969787;28;20041;-86
2022/11/13 13:22:56;;;;;;;4.70;3.60;;;11.20;99.90;;;;;;4969781;28;20131;-86
2022/11/13 13:29:27;;;;;;;4.80;3.17;;;11.00;99.90;;;;;;4963713;28;20038;-86
2022/11/13 13:32:31;;;;;;;6.47;4.60;;;10.90;99.90;;;;;;4959010;28;20034;-87
2022/11/13 13:35:15;;;;;;;7.00;4.80;;;10.70;99.90;;;;;;4969849;28;20611;-86
2022/11/13 13:38:24;;;;;;;5.15;3.53;;;10.60;99.90;;;;;;4976460;28;20093;-87
2022/11/13 13:41:28;;;;;;;6.90;4.22;;;10.50;99.90;;;;;;4959454;28;20876;-86
2022/11/13 13:44:36;;;;;;;7.05;3.95;;;10.50;99.90;;;;;;4984839;28;20090;-86
2022/11/13 13:47:26;;;;;;;6.95;3.88;;;10.40;99.90;;;;;;4982425;28;20054;-86
2022/11/13 13:50:20;;;;;;;7.00;3.65;;;10.30;99.90;;;;;;4973535;28;20209;-86
2022/11/13 13:53:07;;;;;;;6.10;3.78;;;10.30;99.90;;;;;;4973575;28;20037;-86
2022/11/13 13:55:55;;;;;;;6.25;3.92;;;10.20;99.90;;;;;;4971950;28;21157;-86
2022/11/13 13:58:40;;;;;;;5.57;3.80;;;10.20;99.90;;;;;;4971237;28;20081;-86
2022/11/13 14:01:30;;;;;;;5.40;4.15;;;10.20;99.90;;;;;;4971654;28;20050;-86
2022/11/13 14:08:06;;;;;;;8.13;3.80;;;10.20;99.90;;;;;;4969072;28;20506;-86
2022/11/13 14:10:51;;;;;;;5.63;3.88;;;10.10;99.90;;;;;;4976296;28;20042;-86
2022/11/13 14:13:36;;;;;;;8.23;4.00;;;10.00;99.90;;;;;;4983059;28;20446;-86
2022/11/13 14:16:20;;;;;;;4.40;3.28;;;10.00;99.90;;;;;;4970637;28;20097;-86
2022/11/13 14:22:52;;;;;;;7.80;4.25;;;9.70;99.90;;;;;;4978864;28;20890;-86
2022/11/13 14:25:37;;;;;;;6.72;3.92;;;9.60;99.90;;;;;;4975222;28;20109;-86
2022/11/13 14:28:54;;;;;;;6.72;4.07;;;9.50;99.90;;;;;;4968647;28;20078;-86
2022/11/13 14:31:39;;;;;;;8.07;4.30;;;9.50;99.90;;;;;;4986723;28;20042;-86
2022/11/13 14:34:23;;;;;;;7.68;4.05;;;9.50;99.90;;;;;;4970242;28;20039;-86
2022/11/13 14:37:29;;;;;;;7.47;4.10;;;9.40;99.90;;;;;;4962704;28;20118;-86
2022/11/13 14:40:25;;;;;;;7.00;4.35;;;9.40;99.90;;;;;;4971653;28;20096;-86
2022/11/13 14:43:17;;;;;;;9.82;4.50;;;9.40;99.90;;;;;;4982622;28;20169;-86
2022/11/13 14:46:03;;;;;;;;;;;9.30;99.90;;;;;;4971668;28;20037;-87
2022/11/13 14:48:55;;;;;;;7.85;5.18;;;9.20;99.90;;;;;;4965572;28;19974;-86
2022/11/13 14:51:40;;;;;;;8.82;5.10;;;9.10;99.90;;;;;;4964051;28;20431;-87
2022/11/13 14:54:34;;;;;;;7.43;4.95;;;9.00;99.90;;;;;;4967583;28;20045;-87
2022/11/13 14:57:20;;;;;;;8.60;5.38;;;8.90;99.90;;;;;;4967484;28;20053;-86
2022/11/13 15:00:16;;;;;;;8.38;4.82;;;8.90;99.90;;;;;;4976652;28;20053;-86
2022/11/13 15:03:02;;;;;;;9.27;5.60;;;8.90;99.90;;;;;;4983408;28;20037;-86
2022/11/13 15:05:46;;;;;;;9.48;5.00;;;8.90;99.90;;;;;;4987056;28;20565;-86
2022/11/13 15:08:30;;;;;;;7.75;5.60;;;8.80;99.90;;;;;;4985621;28;20150;-87
2022/11/13 15:11:17;;;;;;;7.55;4.85;;;8.80;99.90;;;;;;4983211;28;20041;-87
2022/11/13 15:14:01;;;;;;;9.45;5.25;;;8.60;99.90;;;;;;4986568;28;20571;-87
2022/11/13 15:16:46;;;;;;;8.43;5.45;;;8.50;99.90;;;;;;4998836;28;20041;-86
2022/11/13 15:19:36;;;;;;;9.68;5.60;;;8.50;99.90;;;;;;4989241;28;20053;-86